createdAt,value
2023-05-07T00:05:26.421Z,1.73
2023-05-07T00:08:11.508Z,1.92
2023-05-07T00:10:56.037Z,2.15
2023-05-07T00:13:43.191Z,2.63
2023-05-07T00:16:29.672Z,2.78
2023-05-07T00:19:14.981Z,2.30
2023-05-07T00:21:59.932Z,2.42
2023-05-07T00:27:29.422Z,2.60
2023-05-07T00:30:14.773Z,2.30
2023-05-07T00:32:59.858Z,2.13
2023-05-07T00:35:45.020Z,2.05
2023-05-07T00:38:29.954Z,2.20
2023-05-07T00:43:59.565Z,2.25
2023-05-07T00:46:49.636Z,2.63
2023-05-07T00:49:41.460Z,2.28
2023-05-07T00:52:26.788Z,2.65
2023-05-07T00:55:13.549Z,2.58
2023-05-07T00:57:58.665Z,2.85
2023-05-07T01:00:54.493Z,2.47
2023-05-07T01:03:51.687Z,2.53
2023-05-07T01:06:37.688Z,2.65
2023-05-07T01:09:25.574Z,2.50
2023-05-07T01:12:11.226Z,2.45
2023-05-07T01:14:56.260Z,3.03
2023-05-07T01:17:42.647Z,2.42
2023-05-07T01:20:43.180Z,2.80
2023-05-07T01:23:30.035Z,2.90
2023-05-07T01:26:14.860Z,2.60
2023-05-07T01:29:02.570Z,2.55
2023-05-07T01:31:49.805Z,2.53
2023-05-07T01:34:36.619Z,2.78
2023-05-07T01:37:22.569Z,2.92
2023-05-07T01:40:08.657Z,2.70
2023-05-07T01:42:55.092Z,2.53
2023-05-07T01:45:41.855Z,3.13
2023-05-07T01:48:29.914Z,3.00
2023-05-07T01:51:15.396Z,2.83
2023-05-07T01:54:00.724Z,3.40
2023-05-07T01:56:48.377Z,3.10
2023-05-07T01:59:33.266Z,2.80
2023-05-07T02:02:25.306Z,2.83
2023-05-07T02:05:13.112Z,3.20
2023-05-07T02:08:01.305Z,3.25
2023-05-07T02:10:47.744Z,2.80
2023-05-07T02:13:35.010Z,3.00
2023-05-07T02:16:20.350Z,2.72
2023-05-07T02:19:05.639Z,2.67
2023-05-07T02:21:51.370Z,2.90
2023-05-07T02:24:36.239Z,2.70
2023-05-07T02:27:21.159Z,3.00
2023-05-07T02:30:06.807Z,3.45
2023-05-07T02:32:51.761Z,3.30
2023-05-07T02:35:36.571Z,2.67
2023-05-07T02:38:23.110Z,2.65
2023-05-07T02:41:08.012Z,3.00
2023-05-07T02:43:52.904Z,3.13
2023-05-07T02:46:37.900Z,3.20
2023-05-07T02:49:26.791Z,3.25
2023-05-07T02:52:11.821Z,2.90
2023-05-07T02:54:56.657Z,3.03
2023-05-07T02:57:41.857Z,3.03
2023-05-07T03:00:26.779Z,3.15
2023-05-07T03:03:22.324Z,2.78
2023-05-07T03:06:07.309Z,2.80
2023-05-07T03:08:52.372Z,3.47
2023-05-07T03:11:37.348Z,2.88
2023-05-07T03:14:22.169Z,3.10
2023-05-07T03:17:07.183Z,3.00
2023-05-07T03:19:52.278Z,2.92
2023-05-07T03:22:37.252Z,3.38
2023-05-07T03:25:22.251Z,3.20
2023-05-07T03:28:07.170Z,3.17
2023-05-07T03:30:58.664Z,3.80
2023-05-07T03:33:57.811Z,3.50
2023-05-07T03:36:43.242Z,2.95
2023-05-07T03:39:30.836Z,2.90
2023-05-07T03:42:15.932Z,2.92
2023-05-07T03:45:00.894Z,3.15
2023-05-07T03:47:45.842Z,3.08
2023-05-07T03:50:35.030Z,3.03
2023-05-07T03:53:19.716Z,2.90
2023-05-07T03:56:04.556Z,3.00
2023-05-07T03:58:54.768Z,3.00
2023-05-07T04:01:39.861Z,2.90
2023-05-07T04:04:25.441Z,3.20
2023-05-07T04:07:10.352Z,3.00
2023-05-07T04:09:59.067Z,3.55
2023-05-07T04:12:43.609Z,2.95
2023-05-07T04:15:33.328Z,2.85
2023-05-07T04:18:18.437Z,3.40
2023-05-07T04:21:05.980Z,3.58
2023-05-07T04:23:52.851Z,2.95
2023-05-07T04:26:37.811Z,2.75
2023-05-07T04:29:22.956Z,2.75
2023-05-07T04:32:08.233Z,3.25
2023-05-07T04:34:53.270Z,3.40
2023-05-07T04:37:38.427Z,2.92
2023-05-07T04:40:24.089Z,3.47
2023-05-07T04:43:09.556Z,3.22
2023-05-07T04:46:01.016Z,2.90
2023-05-07T04:48:46.223Z,2.90
2023-05-07T04:51:33.217Z,3.15
2023-05-07T04:54:18.327Z,3.08
2023-05-07T04:57:05.167Z,3.13
2023-05-07T04:59:50.453Z,3.05
2023-05-07T05:02:35.648Z,2.67
2023-05-07T05:05:21.041Z,3.30
2023-05-07T05:08:09.150Z,2.90
2023-05-07T05:10:56.775Z,2.85
2023-05-07T05:13:41.685Z,2.63
2023-05-07T05:16:31.298Z,2.70
2023-05-07T05:19:17.497Z,3.13
2023-05-07T05:22:04.280Z,2.63
2023-05-07T05:24:49.266Z,2.97
2023-05-07T05:27:35.338Z,2.92
2023-05-07T05:30:21.298Z,2.90
2023-05-07T05:33:07.392Z,2.70
2023-05-07T05:35:52.208Z,2.75
2023-05-07T05:38:37.280Z,2.90
2023-05-07T05:41:22.824Z,2.80
2023-05-07T05:44:08.711Z,2.75
2023-05-07T05:46:55.681Z,2.83
2023-05-07T05:49:40.678Z,3.13
2023-05-07T05:52:27.105Z,2.53
2023-05-07T05:55:13.348Z,2.70
2023-05-07T05:57:59.814Z,2.50
2023-05-07T06:00:46.664Z,2.53
2023-05-07T06:03:32.817Z,2.40
2023-05-07T06:06:20.348Z,2.72
2023-05-07T06:09:05.297Z,2.90
2023-05-07T06:11:57.170Z,2.70
2023-05-07T06:14:44.123Z,2.97
2023-05-07T06:17:29.723Z,2.83
2023-05-07T06:20:14.658Z,2.95
2023-05-07T06:22:59.846Z,3.00
2023-05-07T06:25:52.118Z,3.25
2023-05-07T06:28:39.966Z,2.88
2023-05-07T06:31:31.493Z,3.20
2023-05-07T06:34:22.810Z,2.67
2023-05-07T06:37:08.133Z,3.00
2023-05-07T06:40:14.239Z,2.60
2023-05-07T06:43:00.699Z,2.75
2023-05-07T06:46:15.386Z,2.80
2023-05-07T06:49:00.509Z,3.30
2023-05-07T06:51:46.090Z,2.92
2023-05-07T06:54:30.979Z,2.58
2023-05-07T06:57:16.456Z,2.67
2023-05-07T07:02:47.275Z,3.75
2023-05-07T07:05:33.708Z,2.58
2023-05-07T07:08:21.770Z,2.53
2023-05-07T07:11:08.747Z,2.60
2023-05-07T07:13:54.784Z,2.42
2023-05-07T07:16:39.837Z,2.65
2023-05-07T07:19:26.755Z,2.45
2023-05-07T07:22:13.588Z,2.92
2023-05-07T07:24:58.494Z,2.65
2023-05-07T07:27:43.220Z,3.33
2023-05-07T07:30:28.816Z,2.72
2023-05-07T07:33:13.681Z,2.60
2023-05-07T07:35:58.671Z,2.45
2023-05-07T07:38:44.147Z,2.90
2023-05-07T07:41:29.126Z,2.55
2023-05-07T07:44:15.847Z,2.63
2023-05-07T07:47:05.066Z,2.33
2023-05-07T07:49:50.885Z,2.38
2023-05-07T07:52:36.654Z,2.30
2023-05-07T07:55:23.572Z,2.40
2023-05-07T07:58:10.766Z,2.47
2023-05-07T08:00:56.351Z,2.70
2023-05-07T08:03:42.391Z,2.80
2023-05-07T08:06:27.994Z,2.70
2023-05-07T08:09:13.784Z,2.67
2023-05-07T08:12:00.204Z,2.70
2023-05-07T08:14:45.011Z,2.53
2023-05-07T08:17:30.124Z,2.53
2023-05-07T08:20:15.737Z,2.28
2023-05-07T08:23:01.094Z,2.75
2023-05-07T08:25:46.193Z,2.30
2023-05-07T08:28:31.591Z,2.88
2023-05-07T08:31:16.723Z,2.72
2023-05-07T08:34:05.552Z,2.42
2023-05-07T08:36:53.391Z,2.78
2023-05-07T08:39:41.452Z,2.55
2023-05-07T08:42:37.280Z,2.75
2023-05-07T08:45:23.356Z,2.95
2023-05-07T08:48:15.937Z,2.50
2023-05-07T08:51:03.277Z,2.55
2023-05-07T08:53:50.375Z,2.40
2023-05-07T08:56:40.842Z,2.28
2023-05-07T08:59:26.356Z,3.03
2023-05-07T09:02:11.828Z,2.65
2023-05-07T09:04:57.679Z,2.30
2023-05-07T09:07:42.719Z,2.35
2023-05-07T09:10:30.533Z,2.30
2023-05-07T09:13:15.585Z,2.47
2023-05-07T09:16:11.971Z,2.38
2023-05-07T09:18:59.881Z,1.95
2023-05-07T09:21:45.151Z,2.20
2023-05-07T09:24:35.236Z,1.92
2023-05-07T09:27:21.571Z,2.03
2023-05-07T09:30:07.631Z,2.05
2023-05-07T09:32:53.940Z,1.98
2023-05-07T09:35:40.508Z,2.53
2023-05-07T09:38:29.660Z,3.05
2023-05-07T09:41:17.311Z,3.28
2023-05-07T09:44:22.464Z,1.92
2023-05-07T09:47:10.653Z,2.08
2023-05-07T09:50:05.957Z,2.03
2023-05-07T09:52:50.846Z,1.95
2023-05-07T09:55:36.731Z,2.22
2023-05-07T09:58:23.384Z,2.60
2023-05-07T10:01:10.559Z,1.98
2023-05-07T10:03:57.908Z,1.98
2023-05-07T10:06:44.652Z,2.50
2023-05-07T10:09:30.763Z,2.22
2023-05-07T10:12:17.801Z,2.20
2023-05-07T10:15:04.335Z,2.90
2023-05-07T10:17:50.163Z,2.80
2023-05-07T10:20:37.586Z,2.00
2023-05-07T10:23:25.981Z,1.80
2023-05-07T10:26:16.495Z,2.35
2023-05-07T10:29:14.256Z,2.15
2023-05-07T10:32:37.074Z,2.10
2023-05-07T10:35:26.422Z,2.42
2023-05-07T10:38:11.461Z,2.67
2023-05-07T10:40:58.920Z,2.65
2023-05-07T10:43:45.968Z,2.25
2023-05-07T10:46:38.198Z,2.38
2023-05-07T10:49:35.201Z,2.25
2023-05-07T10:52:26.571Z,2.30
2023-05-07T10:55:27.738Z,2.40
2023-05-07T10:58:38.900Z,2.35
2023-05-07T11:01:53.323Z,1.95
2023-05-07T11:04:44.720Z,2.22
2023-05-07T11:08:02.482Z,2.03
2023-05-07T11:10:56.398Z,2.22
2023-05-07T11:14:01.378Z,2.10
2023-05-07T11:17:07.423Z,2.17
2023-05-07T11:19:54.161Z,2.13
2023-05-07T11:22:57.669Z,1.83
2023-05-07T11:25:48.728Z,2.10
2023-05-07T11:28:43.912Z,2.17
2023-05-07T11:31:30.342Z,1.98
2023-05-07T11:34:25.627Z,2.10
2023-05-07T11:37:18.105Z,2.10
2023-05-07T11:40:14.273Z,2.22
2023-05-07T11:42:59.017Z,1.80
2023-05-07T11:45:45.200Z,1.98
2023-05-07T11:48:30.703Z,2.00
2023-05-07T11:51:19.700Z,2.50
2023-05-07T11:54:09.056Z,2.25
2023-05-07T11:56:56.586Z,3.53
2023-05-07T11:59:41.447Z,2.55
2023-05-07T12:02:26.666Z,2.30
2023-05-07T12:05:12.680Z,3.78
2023-05-07T12:07:58.332Z,2.47
2023-05-07T12:10:44.755Z,2.33
2023-05-07T12:13:29.242Z,2.47
2023-05-07T12:16:14.680Z,2.90
2023-05-07T12:18:59.453Z,2.63
2023-05-07T12:21:44.213Z,2.10
2023-05-07T12:24:29.619Z,2.15
2023-05-07T12:27:16.206Z,2.00
2023-05-07T12:30:00.979Z,2.03
2023-05-07T12:32:46.030Z,2.40
2023-05-07T12:35:32.562Z,1.85
2023-05-07T12:38:18.513Z,2.10
2023-05-07T12:41:03.866Z,1.90
2023-05-07T12:43:49.198Z,2.15
2023-05-07T12:46:39.525Z,2.28
2023-05-07T12:49:25.522Z,2.28
2023-05-07T12:52:11.766Z,2.20
2023-05-07T12:54:56.655Z,2.03
2023-05-07T12:57:43.962Z,2.00
2023-05-07T13:00:39.188Z,1.83
2023-05-07T13:03:28.875Z,1.85
2023-05-07T13:06:13.947Z,1.90
2023-05-07T13:08:58.798Z,2.03
2023-05-07T13:11:43.786Z,1.83
2023-05-07T13:14:28.738Z,1.80
2023-05-07T13:17:13.676Z,1.90
2023-05-07T13:19:58.481Z,1.77
2023-05-07T13:22:43.530Z,1.92
2023-05-07T13:25:28.629Z,1.85
2023-05-07T13:28:13.729Z,1.80
2023-05-07T13:30:58.843Z,1.70
2023-05-07T13:36:28.916Z,2.08
2023-05-07T13:39:13.923Z,1.88
2023-05-07T13:41:58.828Z,1.60
2023-05-07T13:44:44.328Z,1.58
2023-05-07T13:47:28.986Z,2.45
2023-05-07T13:50:14.330Z,2.70
2023-05-07T13:52:59.117Z,2.50
2023-05-07T13:55:44.782Z,3.00
2023-05-07T13:58:29.348Z,2.13
2023-05-07T14:01:14.290Z,1.90
2023-05-07T14:03:59.871Z,2.40
2023-05-07T14:06:44.710Z,1.63
2023-05-07T14:09:29.990Z,2.08
2023-05-07T14:12:14.839Z,2.10
2023-05-07T14:15:00.182Z,1.92
2023-05-07T14:17:45.694Z,1.80
2023-05-07T14:20:31.501Z,1.98
2023-05-07T14:23:18.133Z,2.10
2023-05-07T14:26:02.730Z,2.42
2023-05-07T14:28:47.772Z,2.40
2023-05-07T14:31:33.811Z,2.05
2023-05-07T14:34:18.622Z,2.45
2023-05-07T14:37:03.903Z,2.00
2023-05-07T14:39:50.503Z,2.47
2023-05-07T14:42:36.076Z,2.70
2023-05-07T14:45:21.893Z,2.70
2023-05-07T14:48:06.869Z,2.38
2023-05-07T14:50:51.787Z,2.05
2023-05-07T14:53:36.775Z,2.00
2023-05-07T14:56:21.952Z,2.28
2023-05-07T14:59:07.740Z,2.40
2023-05-07T15:01:52.468Z,2.38
2023-05-07T15:04:38.684Z,2.58
2023-05-07T15:07:23.338Z,2.45
2023-05-07T15:10:08.821Z,2.80
2023-05-07T15:12:53.640Z,2.83
2023-05-07T15:15:39.614Z,2.13
2023-05-07T15:18:24.109Z,2.10
2023-05-07T15:21:09.171Z,2.70
2023-05-07T15:23:55.136Z,2.10
2023-05-07T15:26:40.282Z,2.53
2023-05-07T15:29:25.490Z,2.42
2023-05-07T15:32:10.931Z,2.70
2023-05-07T15:34:55.895Z,2.75
2023-05-07T15:37:40.771Z,2.20
2023-05-07T15:40:25.740Z,2.58
2023-05-07T15:43:11.848Z,2.78
2023-05-07T15:45:56.784Z,2.33
2023-05-07T15:48:41.687Z,2.33
2023-05-07T15:51:26.657Z,1.65
2023-05-07T15:54:11.830Z,2.58
2023-05-07T15:56:56.665Z,2.22
2023-05-07T15:59:41.659Z,2.05
2023-05-07T16:02:26.796Z,2.40
2023-05-07T16:05:13.122Z,1.80
2023-05-07T16:07:59.611Z,2.05
2023-05-07T16:10:44.150Z,1.88
2023-05-07T16:13:29.401Z,2.05
2023-05-07T16:16:14.205Z,2.10
2023-05-07T16:18:59.155Z,2.05
2023-05-07T16:21:44.153Z,2.10
2023-05-07T16:27:14.339Z,1.88
2023-05-07T16:29:59.188Z,1.40
2023-05-07T16:32:44.271Z,1.80
2023-05-07T16:35:29.300Z,1.90
2023-05-07T16:38:14.359Z,2.03
2023-05-07T16:40:59.349Z,1.80
2023-05-07T16:43:44.110Z,2.10
2023-05-07T16:46:29.378Z,1.92
2023-05-07T16:49:14.030Z,1.90
2023-05-07T16:51:59.216Z,1.92
2023-05-07T16:54:44.386Z,2.08
2023-05-07T16:57:30.182Z,1.70
2023-05-07T17:00:16.396Z,1.80
2023-05-07T17:03:02.919Z,1.65
2023-05-07T17:05:48.062Z,2.20
2023-05-07T17:08:33.400Z,1.85
2023-05-07T17:11:18.711Z,2.17
2023-05-07T17:14:05.497Z,1.65
2023-05-07T17:16:50.796Z,1.50
2023-05-07T17:22:24.400Z,1.58
2023-05-07T17:25:10.005Z,1.80
2023-05-07T17:27:55.373Z,2.25
2023-05-07T17:30:40.904Z,1.98
2023-05-07T17:33:26.689Z,2.33
2023-05-07T17:36:11.931Z,2.03
2023-05-07T17:38:57.287Z,2.05
2023-05-07T17:41:42.310Z,1.98
2023-05-07T17:44:27.482Z,1.90
2023-05-07T17:47:13.737Z,1.85
2023-05-07T17:49:59.969Z,2.20
2023-05-07T17:52:46.698Z,3.63
2023-05-07T17:55:33.073Z,4.00
2023-05-07T17:58:18.626Z,4.25
2023-05-07T18:01:03.866Z,4.47
2023-05-07T18:03:48.839Z,3.67
2023-05-07T18:06:33.653Z,3.40
2023-05-07T18:09:18.615Z,3.22
2023-05-07T18:12:04.025Z,3.28
2023-05-07T18:14:48.608Z,3.58
2023-05-07T18:17:33.974Z,3.70
2023-05-07T18:20:19.636Z,3.63
2023-05-07T18:23:04.517Z,4.47
2023-05-07T18:25:49.945Z,4.05
2023-05-07T18:28:35.096Z,4.20
2023-05-07T18:31:20.916Z,5.13
2023-05-07T18:34:06.005Z,4.50
2023-05-07T18:36:51.096Z,4.68
2023-05-07T18:39:36.649Z,5.72
2023-05-07T18:42:21.621Z,5.22
2023-05-07T18:45:07.198Z,5.28
2023-05-07T18:47:52.268Z,4.38
2023-05-07T18:50:41.687Z,5.05
2023-05-07T18:53:26.528Z,4.50
2023-05-07T18:56:11.959Z,4.07
2023-05-07T18:58:57.111Z,3.78
2023-05-07T19:01:42.640Z,3.92
2023-05-07T19:04:27.640Z,4.30
2023-05-07T19:07:12.628Z,4.53
2023-05-07T19:10:04.923Z,4.13
2023-05-07T19:12:54.871Z,3.92
2023-05-07T19:15:40.791Z,3.97
2023-05-07T19:18:25.979Z,4.75
2023-05-07T19:21:12.144Z,4.40
2023-05-07T19:23:57.062Z,5.38
2023-05-07T19:29:26.564Z,5.18
2023-05-07T19:32:11.235Z,4.22
2023-05-07T19:34:56.134Z,4.38
2023-05-07T19:37:41.415Z,4.80
2023-05-07T19:40:26.426Z,4.32
2023-05-07T19:43:11.367Z,5.00
2023-05-07T19:45:56.629Z,4.90
2023-05-07T19:48:41.945Z,5.03
2023-05-07T19:51:31.661Z,5.30
2023-05-07T19:54:17.154Z,5.13
2023-05-07T19:57:01.821Z,4.75
2023-05-07T19:59:47.021Z,4.47
2023-05-07T20:02:32.867Z,4.95
2023-05-07T20:05:18.370Z,4.97
2023-05-07T20:08:03.879Z,5.25
2023-05-07T20:10:50.009Z,5.10
2023-05-07T20:13:35.189Z,5.57
2023-05-07T20:16:20.937Z,5.78
2023-05-07T20:19:05.867Z,5.35
2023-05-07T20:21:52.198Z,4.95
2023-05-07T20:24:38.598Z,5.35
2023-05-07T20:27:25.277Z,5.38
2023-05-07T20:30:12.525Z,5.30
2023-05-07T20:32:58.749Z,5.32
2023-05-07T20:35:43.707Z,5.45
2023-05-07T20:38:31.101Z,8.95
2023-05-07T20:41:17.103Z,7.90
2023-05-07T20:44:02.106Z,7.55
2023-05-07T20:46:47.212Z,7.55
2023-05-07T20:49:33.174Z,6.85
2023-05-07T20:52:18.938Z,6.53
2023-05-07T20:55:04.780Z,6.35
2023-05-07T20:57:51.232Z,6.28
2023-05-07T21:00:38.616Z,6.63
2023-05-07T21:03:23.326Z,6.40
2023-05-07T21:06:08.490Z,6.22
2023-05-07T21:08:54.503Z,6.45
2023-05-07T21:11:39.778Z,6.30
2023-05-07T21:14:24.774Z,5.72
2023-05-07T21:17:09.996Z,5.78
2023-05-07T21:19:55.191Z,4.10
2023-05-07T21:22:40.052Z,3.72
2023-05-07T21:28:09.649Z,2.60
2023-05-07T21:30:54.270Z,2.15
2023-05-07T21:33:39.305Z,2.03
2023-05-07T21:36:24.440Z,2.60
2023-05-07T21:39:09.238Z,2.70
2023-05-07T21:41:53.930Z,1.67
2023-05-07T21:47:23.101Z,1.67
2023-05-07T21:52:52.811Z,1.70
2023-05-07T21:55:37.856Z,1.60
2023-05-07T22:01:08.844Z,1.42
2023-05-07T22:03:53.773Z,1.40
2023-05-07T22:06:38.608Z,1.85
2023-05-07T22:09:23.562Z,1.50
2023-05-07T22:12:08.088Z,1.40
2023-05-07T22:14:53.054Z,1.40
2023-05-07T22:17:38.082Z,1.38
2023-05-07T22:20:23.009Z,1.50
2023-05-07T22:23:08.202Z,1.60
2023-05-07T22:25:52.980Z,2.20
2023-05-07T22:28:37.917Z,1.60
2023-05-07T22:31:22.966Z,1.63
2023-05-07T22:34:08.288Z,1.40
2023-05-07T22:36:52.828Z,1.63
2023-05-07T22:39:38.029Z,1.80
2023-05-07T22:42:22.995Z,1.95
2023-05-07T22:45:08.476Z,1.95
2023-05-07T22:47:53.082Z,1.92
2023-05-07T22:50:38.582Z,2.15
2023-05-07T22:53:23.394Z,2.20
2023-05-07T22:56:09.463Z,2.33
2023-05-07T22:58:54.456Z,1.98
2023-05-07T23:01:39.054Z,2.00
2023-05-07T23:04:24.103Z,1.83
2023-05-07T23:07:08.992Z,1.58
2023-05-07T23:09:54.021Z,1.92
2023-05-07T23:12:38.911Z,1.60
2023-05-07T23:15:23.889Z,1.95
2023-05-07T23:18:09.361Z,1.60
2023-05-07T23:20:54.388Z,1.65
2023-05-07T23:23:39.200Z,1.50
2023-05-07T23:26:27.870Z,1.60
2023-05-07T23:29:12.469Z,1.52
2023-05-07T23:31:57.714Z,1.42
2023-05-07T23:34:42.466Z,1.73
2023-05-07T23:37:27.406Z,1.50
2023-05-07T23:40:12.676Z,1.67
2023-05-07T23:42:58.008Z,1.60
2023-05-07T23:45:43.900Z,1.60
2023-05-07T23:48:28.827Z,1.67
2023-05-07T23:51:13.863Z,1.40
2023-05-07T23:53:58.681Z,1.52
2023-05-07T23:56:43.531Z,1.50
2023-05-07T23:59:29.206Z,1.63
